Time;durP1;ratioP1;P1;durP2;ratioP2;P2;SDS_P1;SDS_P2;PMS_P1;PMS_P2;Temp;Humidity;BMP_temperature;BMP_pressure;BME280_temperature;BME280_humidity;BME280_pressure;Samples;Min_cycle;Max_cycle;Signal;HPM_P1;HPM_P2
2021/06/12 00:02:04;;;;;;;9.10;5.97;;;;;;;16.40;91.06;96216.97;4372930;32;20219;-72
2021/06/12 00:04:30;;;;;;;6.30;5.68;;;;;;;16.34;91.79;96217.44;4372418;32;20305;-72
2021/06/12 00:06:58;;;;;;;6.10;5.50;;;;;;;16.44;90.02;96222.78;4372000;32;20582;-72
2021/06/12 00:09:23;;;;;;;6.30;5.70;;;;;;;16.46;89.94;96218.25;4372469;32;20261;-72
2021/06/12 00:11:50;;;;;;;6.90;6.20;;;;;;;16.44;90.24;96223.62;4372579;32;20216;-72
2021/06/12 00:14:15;;;;;;;8.02;6.28;;;;;;;16.35;91.81;96223.50;4372688;32;20517;-72
2021/06/12 00:16:41;;;;;;;7.47;6.47;;;;;;;16.27;92.48;96224.09;4372452;32;20246;-72
2021/06/12 00:19:06;;;;;;;10.07;6.23;;;;;;;16.24;92.79;96219.13;4372880;32;20317;-72
2021/06/12 00:21:31;;;;;;;6.68;5.97;;;;;;;16.27;92.04;96215.44;4372592;32;20220;-72
2021/06/12 00:23:57;;;;;;;7.63;6.33;;;;;;;16.25;91.92;96215.56;4372168;32;20253;-72
2021/06/12 00:26:22;;;;;;;7.57;6.03;;;;;;;16.26;91.93;96213.78;4372258;32;20234;-72
2021/06/12 00:28:49;;;;;;;6.85;6.15;;;;;;;16.14;93.38;96212.97;4372620;32;20227;-72
2021/06/12 00:31:14;;;;;;;7.57;6.00;;;;;;;16.09;93.79;96215.94;4372445;32;20219;-72
2021/06/12 00:33:40;;;;;;;8.37;5.97;;;;;;;16.12;93.34;96209.62;4372356;32;20736;-72
2021/06/12 00:36:05;;;;;;;6.50;5.83;;;;;;;16.16;92.61;96208.44;4371854;32;20294;-72
2021/06/12 00:38:31;;;;;;;8.95;5.85;;;;;;;16.09;93.39;96208.09;4372175;32;20276;-72
2021/06/12 00:40:56;;;;;;;12.80;5.87;;;;;;;16.10;92.99;96208.94;4372584;32;20228;-72
2021/06/12 00:43:21;;;;;;;8.23;6.40;;;;;;;16.05;92.88;96206.66;4372524;32;20237;-72
2021/06/12 00:45:48;;;;;;;6.77;6.07;;;;;;;16.04;93.52;96201.56;4375343;32;20220;-72
2021/06/12 00:48:14;;;;;;;6.45;5.72;;;;;;;15.98;93.93;96197.63;4375182;32;20281;-72
2021/06/12 00:50:40;;;;;;;7.13;5.80;;;;;;;15.93;93.48;96191.94;4375110;32;20263;-72
2021/06/12 00:53:05;;;;;;;7.20;6.50;;;;;;;15.89;93.67;96191.34;4375339;32;20290;-72
2021/06/12 00:55:31;;;;;;;7.22;5.70;;;;;;;15.91;93.75;96191.25;4374940;32;20220;-72
2021/06/12 00:57:57;;;;;;;6.37;5.77;;;;;;;16.00;93.01;96187.06;4375107;32;20320;-72
2021/06/12 01:00:22;;;;;;;6.75;5.62;;;;;;;15.95;93.32;96193.50;4374979;32;20245;-72
2021/06/12 01:02:49;;;;;;;7.27;6.30;;;;;;;15.89;94.62;96195.75;4374851;32;20238;-72
2021/06/12 01:05:16;;;;;;;8.68;6.30;;;;;;;15.83;97.20;96204.03;4361020;32;20253;-72
2021/06/12 01:07:42;;;;;;;7.95;5.90;;;;;;;15.70;98.76;96202.38;4374965;32;20247;-72
2021/06/12 01:10:11;;;;;;;7.03;5.95;;;;;;;15.77;98.97;96194.06;4374836;32;20227;-72
2021/06/12 01:12:45;;;;;;;6.62;5.93;;;;;;;15.88;96.66;96184.47;4375296;32;20241;-72
2021/06/12 01:15:11;;;;;;;7.28;6.00;;;;;;;15.93;96.18;96182.31;4374699;32;20254;-73
2021/06/12 01:17:46;;;;;;;6.10;5.53;;;;;;;15.94;95.39;96185.75;4374694;32;20290;-72
2021/06/12 01:20:38;;;;;;;10.13;6.50;;;;;;;16.01;94.35;96176.50;4374987;32;20215;-72
2021/06/12 01:23:23;;;;;;;8.45;6.25;;;;;;;15.84;96.58;96177.81;4375016;32;20219;-72
2021/06/12 01:25:57;;;;;;;6.90;5.03;;;;;;;15.84;96.81;96172.59;4376055;32;20238;-72
2021/06/12 01:28:40;;;;;;;6.43;4.87;;;;;;;15.95;90.55;96177.81;4377628;32;20231;-73
2021/06/12 01:31:09;;;;;;;5.90;4.95;;;;;;;15.83;89.09;96175.31;4375946;32;20238;-72
2021/06/12 01:33:38;;;;;;;6.80;5.00;;;;;;;15.79;89.72;96177.31;4375366;32;20619;-72
2021/06/12 01:36:05;;;;;;;16.85;5.37;;;;;;;15.72;90.94;96174.37;4374519;32;20211;-72
2021/06/12 01:38:35;;;;;;;5.70;5.20;;;;;;;15.73;91.20;96173.41;4374401;32;20259;-72
2021/06/12 01:41:03;;;;;;;5.72;5.22;;;;;;;15.65;91.15;96177.53;4374449;32;20262;-72
2021/06/12 01:43:30;;;;;;;6.62;4.97;;;;;;;15.58;91.02;96174.56;4374753;32;20232;-72
2021/06/12 01:45:57;;;;;;;6.93;5.93;;;;;;;15.59;92.55;96172.78;4360607;32;20219;-72
2021/06/12 01:48:25;;;;;;;8.27;6.28;;;;;;;15.59;93.58;96173.59;4374640;32;20227;-72
2021/06/12 01:50:51;;;;;;;6.90;5.90;;;;;;;15.70;93.57;96165.81;4374708;32;20267;-72
2021/06/12 01:53:19;;;;;;;6.47;5.80;;;;;;;15.73;93.07;96167.37;4374717;32;20222;-72
2021/06/12 01:55:46;;;;;;;7.07;5.80;;;;;;;15.68;92.91;96161.66;4373655;32;20227;-72
2021/06/12 01:58:17;;;;;;;8.85;5.80;;;;;;;15.65;93.03;96167.97;4374230;32;20245;-72
2021/06/12 02:00:42;;;;;;;7.62;6.05;;;;;;;15.60;93.45;96170.03;4374433;32;20296;-72
2021/06/12 02:03:09;;;;;;;7.65;5.70;;;;;;;15.63;93.92;96171.59;4373957;32;20219;-72
2021/06/12 02:05:37;;;;;;;8.25;6.25;;;;;;;15.56;96.56;96173.84;4373542;32;20285;-71
2021/06/12 02:08:04;;;;;;;8.38;6.03;;;;;;;15.57;96.93;96170.28;4374228;32;20690;-72
2021/06/12 02:10:31;;;;;;;7.20;5.95;;;;;;;15.48;98.27;96168.38;4374101;32;20653;-72
2021/06/12 02:12:57;;;;;;;7.07;6.18;;;;;;;15.59;97.10;96159.72;4374634;32;20243;-73
2021/06/12 02:15:25;;;;;;;7.93;6.12;;;;;;;15.63;96.41;96161.16;4359804;32;20904;-72
2021/06/12 02:17:52;;;;;;;7.65;6.03;;;;;;;15.65;95.86;96159.28;4373895;32;20245;-72
2021/06/12 02:20:19;;;;;;;6.45;5.57;;;;;;;15.62;96.76;96156.88;4374098;32;20594;-72
2021/06/12 02:22:49;;;;;;;7.03;5.87;;;;;;;15.64;95.86;96161.03;4374173;32;20238;-72
2021/06/12 02:25:15;;;;;;;6.30;5.45;;;;;;;15.61;94.97;96158.66;4373880;32;20298;-72
2021/06/12 02:27:44;;;;;;;6.37;5.78;;;;;;;15.60;94.12;96162.22;4373640;32;20715;-72
2021/06/12 02:30:11;;;;;;;8.27;5.28;;;;;;;15.48;95.13;96165.75;4373892;32;20300;-72
2021/06/12 02:32:38;;;;;;;6.28;5.30;;;;;;;15.54;93.33;96154.03;4373732;32;20219;-73
2021/06/12 02:35:04;;;;;;;8.40;5.18;;;;;;;15.48;93.69;96156.16;4373970;32;20227;-72
2021/06/12 02:37:29;;;;;;;15.15;5.20;;;;;;;15.47;93.56;96156.28;4373687;32;20243;-73
2021/06/12 02:39:56;;;;;;;6.23;5.50;;;;;;;15.35;92.87;96154.56;4373882;32;20253;-72
2021/06/12 02:42:22;;;;;;;5.50;5.00;;;;;;;15.22;93.90;96154.69;4360197;32;20253;-72
2021/06/12 02:44:47;;;;;;;6.00;5.03;;;;;;;15.15;94.41;96143.87;4373917;32;20231;-72
2021/06/12 02:47:15;;;;;;;7.50;5.22;;;;;;;15.14;95.04;96154.44;4373080;32;20245;-72
2021/06/12 02:49:42;;;;;;;7.03;5.15;;;;;;;15.17;95.82;96152.44;4373464;32;20266;-72
2021/06/12 02:52:14;;;;;;;6.55;5.10;;;;;;;15.23;93.65;96153.72;4373929;32;20236;-72
2021/06/12 02:54:41;;;;;;;5.87;5.28;;;;;;;15.21;91.71;96159.06;4373884;32;20294;-72
2021/06/12 02:57:09;;;;;;;6.00;5.40;;;;;;;15.09;93.05;96165.22;4373463;32;20638;-72
2021/06/12 02:59:36;;;;;;;5.70;4.90;;;;;;;15.17;91.75;96162.88;4373297;32;20231;-72
2021/06/12 03:02:03;;;;;;;6.55;5.25;;;;;;;15.05;92.69;96168.97;4373688;32;20657;-72
2021/06/12 03:04:30;;;;;;;5.93;5.32;;;;;;;14.95;95.44;96176.66;4373566;32;20258;-72
2021/06/12 03:06:56;;;;;;;6.95;5.15;;;;;;;14.92;96.16;96179.50;4372153;32;20517;-72
2021/06/12 03:09:24;;;;;;;6.32;5.70;;;;;;;15.00;95.63;96181.53;4373435;32;20215;-72
2021/06/12 03:11:51;;;;;;;7.20;5.37;;;;;;;15.06;94.17;96182.87;4373091;32;20246;-72
2021/06/12 03:14:18;;;;;;;6.30;5.70;;;;;;;15.01;94.55;96180.59;4372970;32;20254;-73
2021/06/12 03:16:46;;;;;;;5.68;5.18;;;;;;;14.96;95.10;96185.31;4372881;32;20227;-74
2021/06/12 03:19:14;;;;;;;8.00;5.45;;;;;;;14.93;95.42;96180.31;4373534;32;20293;-73
2021/06/12 03:21:41;;;;;;;7.18;5.85;;;;;;;14.95;95.49;96181.87;4373373;32;20219;-73
2021/06/12 03:24:08;;;;;;;6.55;5.87;;;;;;;15.09;92.48;96183.47;4373167;32;20561;-75
2021/06/12 03:26:34;;;;;;;8.80;5.75;;;;;;;15.05;94.10;96179.41;4372610;32;20285;-74
2021/06/12 03:29:00;;;;;;;6.30;5.70;;;;;;;14.97;95.13;96181.75;4359423;32;20231;-75
2021/06/12 03:31:29;;;;;;;14.23;6.35;;;;;;;14.85;96.52;96188.72;4373081;32;20246;-74
2021/06/12 03:33:54;;;;;;;6.70;5.72;;;;;;;14.83;95.89;96189.75;4373153;32;20281;-75
2021/06/12 03:36:22;;;;;;;6.28;5.70;;;;;;;14.83;95.76;96179.31;4372739;32;20262;-75
2021/06/12 03:38:48;;;;;;;5.93;5.43;;;;;;;14.77;96.68;96173.63;4373123;32;20224;-73
2021/06/12 03:41:14;;;;;;;8.73;6.03;;;;;;;14.81;97.06;96178.62;4372814;32;20219;-75
2021/06/12 03:43:41;;;;;;;8.80;5.60;;;;;;;14.80;98.19;96179.56;4372887;32;20246;-74
2021/06/12 03:46:07;;;;;;;7.30;5.73;;;;;;;14.84;98.15;96178.41;4372483;32;20231;-75
2021/06/12 03:48:34;;;;;;;7.05;5.85;;;;;;;14.84;99.03;96184.44;4372705;32;20614;-75
2021/06/12 03:51:01;;;;;;;6.55;5.85;;;;;;;14.90;99.00;96180.53;4358842;32;20284;-75
2021/06/12 03:53:31;;;;;;;9.20;6.43;;;;;;;14.93;98.69;96180.31;4359053;32;20563;-74
2021/06/12 03:55:58;;;;;;;6.47;5.10;;;;;;;14.95;98.23;96186.28;4372709;32;20258;-75
2021/06/12 03:58:24;;;;;;;6.37;5.60;;;;;;;14.97;95.73;96185.19;4372686;32;20633;-74
2021/06/12 04:00:50;;;;;;;5.85;5.28;;;;;;;15.01;95.87;96191.00;4372678;32;20269;-74
2021/06/12 04:03:15;;;;;;;5.67;5.17;;;;;;;15.04;96.22;96185.59;4372812;32;20215;-75
2021/06/12 04:05:42;;;;;;;5.87;5.27;;;;;;;14.99;94.76;96190.31;4372610;32;20646;-74
2021/06/12 04:08:07;;;;;;;6.55;5.32;;;;;;;14.98;94.60;96186.03;4358685;32;20231;-75
2021/06/12 04:10:33;;;;;;;6.57;5.97;;;;;;;14.92;95.56;96187.31;4373029;32;20246;-74
2021/06/12 04:12:58;;;;;;;6.50;5.90;;;;;;;14.82;97.19;96188.94;4358859;32;20257;-74
2021/06/12 04:15:24;;;;;;;12.17;6.67;;;;;;;14.74;99.20;96188.66;4372631;32;20258;-74
2021/06/12 04:17:58;;;;;;;6.45;5.85;;;;;;;14.62;100.00;96195.59;4372595;32;20218;-74
2021/06/12 04:20:24;;;;;;;8.13;6.72;;;;;;;14.54;100.00;96195.31;4372460;32;20230;-75
2021/06/12 04:22:50;;;;;;;8.05;6.10;;;;;;;14.58;100.00;96198.53;4372354;32;20639;-74
2021/06/12 04:25:16;;;;;;;6.68;6.03;;;;;;;14.62;100.00;96202.59;4376830;32;20293;-74
2021/06/12 04:27:41;;;;;;;8.13;6.37;;;;;;;14.63;100.00;96197.25;4376690;32;20245;-74
2021/06/12 04:30:08;;;;;;;6.63;6.03;;;;;;;14.70;100.00;96200.25;4377396;32;20223;-73
2021/06/12 04:32:33;;;;;;;6.12;5.57;;;;;;;14.76;99.82;96200.66;4374484;32;20284;-74
2021/06/12 04:34:59;;;;;;;8.88;6.35;;;;;;;14.90;99.50;96202.22;4373198;32;20236;-73
2021/06/12 04:37:24;;;;;;;6.63;5.80;;;;;;;14.95;99.25;96207.13;4372146;32;20259;-74
2021/06/12 04:39:51;;;;;;;7.57;5.80;;;;;;;14.86;99.74;96213.84;4358703;32;20226;-74
2021/06/12 04:42:16;;;;;;;8.27;5.57;;;;;;;14.90;100.00;96211.84;4372371;32;20219;-74
2021/06/12 04:44:42;;;;;;;6.57;5.67;;;;;;;15.04;99.37;96201.22;4372353;32;20245;-74
2021/06/12 04:47:07;;;;;;;7.25;6.05;;;;;;;15.11;98.97;96196.41;4371993;32;20293;-73
2021/06/12 04:49:32;;;;;;;6.10;5.47;;;;;;;15.19;99.19;96189.66;4372607;32;20270;-74
2021/06/12 04:51:58;;;;;;;6.73;6.07;;;;;;;15.28;97.82;96192.53;4372771;32;20215;-74
2021/06/12 04:54:23;;;;;;;6.60;5.60;;;;;;;15.26;97.38;96197.87;4372501;32;20583;-74
2021/06/12 04:56:50;;;;;;;10.75;6.18;;;;;;;15.08;98.02;96196.63;4371827;32;20211;-74
2021/06/12 04:59:15;;;;;;;6.97;6.30;;;;;;;15.08;98.53;96197.44;4358674;32;20223;-73
2021/06/12 05:01:41;;;;;;;6.73;6.03;;;;;;;15.05;99.28;96207.28;4372622;32;20995;-74
2021/06/12 05:04:06;;;;;;;7.10;6.23;;;;;;;15.10;99.44;96197.34;4372570;32;20237;-74
2021/06/12 05:06:31;;;;;;;5.97;5.20;;;;;;;15.19;99.35;96201.88;4371413;32;20231;-73
2021/06/12 05:08:57;;;;;;;5.80;5.30;;;;;;;15.45;98.67;96197.31;4372529;32;20223;-74
2021/06/12 05:11:22;;;;;;;8.63;6.50;;;;;;;15.80;100.00;96196.47;4372086;32;20242;-74
2021/06/12 05:13:49;;;;;;;7.30;6.50;;;;;;;16.00;99.86;96193.13;4372353;32;20233;-74
2021/06/12 05:16:15;;;;;;;6.68;5.78;;;;;;;16.08;100.00;96195.97;4358317;32;20239;-74
2021/06/12 05:18:43;;;;;;;8.00;6.27;;;;;;;16.20;99.60;96200.25;4372145;32;20349;-73
2021/06/12 05:21:09;;;;;;;6.17;5.57;;;;;;;16.38;99.73;96203.19;4372019;32;20257;-73
2021/06/12 05:23:35;;;;;;;8.00;5.93;;;;;;;16.41;98.65;96209.97;4372072;32;20220;-75
2021/06/12 05:26:03;;;;;;;6.70;6.10;;;;;;;16.47;97.62;96209.47;4371607;32;20263;-74
2021/06/12 05:28:28;;;;;;;7.37;6.28;;;;;;;16.54;98.17;96204.56;4371845;32;20232;-74
2021/06/12 05:30:55;;;;;;;8.00;5.93;;;;;;;16.71;99.09;96204.06;4373285;32;20249;-75
2021/06/12 05:33:21;;;;;;;7.00;6.30;;;;;;;16.77;98.81;96208.00;4374648;32;20270;-74
2021/06/12 05:35:47;;;;;;;8.93;6.50;;;;;;;16.89;97.87;96202.59;4374170;32;20291;-75
2021/06/12 05:38:13;;;;;;;9.33;6.63;;;;;;;16.97;96.90;96201.16;4374362;32;20324;-75
2021/06/12 05:40:38;;;;;;;6.70;6.00;;;;;;;16.90;94.70;96203.44;4374883;32;20219;-75
2021/06/12 05:43:03;;;;;;;8.25;6.50;;;;;;;16.95;95.57;96201.28;4360913;32;20219;-74
2021/06/12 05:45:29;;;;;;;12.13;5.93;;;;;;;16.95;97.34;96197.84;4374319;32;20223;-74
2021/06/12 05:47:56;;;;;;;6.43;5.83;;;;;;;16.88;92.99;96200.97;4374615;32;20578;-75
2021/06/12 05:50:21;;;;;;;6.47;5.70;;;;;;;16.90;90.75;96195.59;4374433;32;20289;-74
2021/06/12 05:52:46;;;;;;;8.43;5.97;;;;;;;16.87;89.82;96196.69;4374187;32;20228;-75
2021/06/12 05:55:12;;;;;;;10.47;5.93;;;;;;;16.89;90.17;96201.78;4374439;32;20215;-75
2021/06/12 05:57:37;;;;;;;7.37;6.00;;;;;;;16.93;90.09;96201.41;4374437;32;20298;-74
2021/06/12 06:00:04;;;;;;;7.07;5.87;;;;;;;16.88;89.73;96200.13;4374811;32;20281;-74
2021/06/12 06:02:29;;;;;;;6.97;6.05;;;;;;;16.84;90.30;96203.94;4374320;32;20219;-74
2021/06/12 06:04:56;;;;;;;6.00;5.15;;;;;;;16.96;90.05;96202.12;4374631;32;20227;-74
2021/06/12 06:07:21;;;;;;;7.82;6.18;;;;;;;17.11;89.36;96206.09;4373783;32;20349;-74
2021/06/12 06:09:47;;;;;;;7.50;5.80;;;;;;;17.29;88.48;96198.53;4374428;32;20342;-73
2021/06/12 06:12:12;;;;;;;7.70;5.83;;;;;;;17.35;88.23;96203.22;4374576;32;20315;-75
2021/06/12 06:14:38;;;;;;;8.13;6.30;;;;;;;17.63;86.22;96199.97;4374206;32;20223;-74
2021/06/12 06:17:03;;;;;;;8.07;5.90;;;;;;;17.81;86.44;96199.41;4373642;32;20231;-75
2021/06/12 06:19:29;;;;;;;7.05;6.10;;;;;;;17.92;84.98;96198.50;4373858;32;20254;-74
2021/06/12 06:21:55;;;;;;;7.70;5.73;;;;;;;18.23;84.29;96199.31;4360266;32;20295;-75
2021/06/12 06:24:21;;;;;;;9.15;6.10;;;;;;;18.55;85.63;96205.22;4373831;32;20284;-74
2021/06/12 06:26:46;;;;;;;6.90;5.50;;;;;;;18.78;82.95;96202.38;4373576;32;20214;-74
2021/06/12 06:29:12;;;;;;;8.47;5.80;;;;;;;18.89;81.39;96214.53;4373883;32;20329;-74
2021/06/12 06:31:37;;;;;;;6.87;5.57;;;;;;;18.97;80.97;96201.56;4373921;32;20666;-74
2021/06/12 06:34:03;;;;;;;7.10;5.53;;;;;;;19.10;80.41;96195.06;4373752;32;20220;-74
2021/06/12 06:36:28;;;;;;;7.87;5.17;;;;;;;19.49;78.95;96194.19;4373453;32;20223;-74
2021/06/12 06:38:55;;;;;;;5.90;5.20;;;;;;;19.81;80.95;96196.53;4373559;32;20590;-74
2021/06/12 06:41:20;;;;;;;6.00;5.18;;;;;;;19.78;77.07;96197.63;4373885;32;20227;-74
2021/06/12 06:43:46;;;;;;;5.80;5.20;;;;;;;19.74;76.78;96200.69;4374128;32;20257;-74
2021/06/12 06:46:11;;;;;;;7.50;5.60;;;;;;;19.85;78.00;96195.25;4373244;32;20298;-74
2021/06/12 06:48:36;;;;;;;6.55;5.28;;;;;;;19.85;76.64;96190.00;4373113;32;20638;-74
2021/06/12 06:51:02;;;;;;;10.83;4.87;;;;;;;19.98;77.24;96202.81;4373729;32;20623;-74
2021/06/12 06:53:32;;;;;;;7.37;4.67;;;;;;;20.33;76.75;96199.50;4373834;32;20215;-74
2021/06/12 06:56:00;;;;;;;6.83;4.97;;;;;;;20.79;74.47;96198.56;4373309;32;20215;-74
2021/06/12 06:58:26;;;;;;;5.40;4.82;;;;;;;21.04;72.65;96198.81;4373491;32;20252;-74
2021/06/12 07:00:51;;;;;;;6.10;5.20;;;;;;;20.88;72.87;96196.84;4373682;32;20267;-74
2021/06/12 07:03:16;;;;;;;9.47;4.77;;;;;;;21.23;74.81;96200.47;4373562;32;20224;-75
2021/06/12 07:05:42;;;;;;;16.70;5.00;;;;;;;21.54;74.22;96200.06;4373096;32;20258;-74
2021/06/12 07:08:07;;;;;;;5.83;4.73;;;;;;;21.83;70.44;96202.41;4373267;32;20423;-74
2021/06/12 07:10:33;;;;;;;6.53;4.60;;;;;;;22.28;70.14;96196.91;4373630;32;20619;-74
2021/06/12 07:13:00;;;;;;;5.67;4.07;;;;;;;22.65;70.73;96201.00;4373406;32;20238;-74
2021/06/12 07:15:26;;;;;;;6.45;4.40;;;;;;;22.99;65.81;96205.41;4372966;32;20230;-74
2021/06/12 07:17:51;;;;;;;5.35;3.75;;;;;;;23.23;66.02;96202.78;4372755;32;20284;-74
2021/06/12 07:20:17;;;;;;;5.83;3.60;;;;;;;23.14;63.81;96196.69;4372964;32;20269;-74
2021/06/12 07:22:42;;;;;;;4.60;3.67;;;;;;;23.25;65.03;96202.63;4372786;32;20672;-74
2021/06/12 07:25:08;;;;;;;4.27;3.67;;;;;;;23.30;63.26;96211.72;4373281;32;20594;-75
2021/06/12 07:27:34;;;;;;;5.53;3.60;;;;;;;23.39;62.98;96210.72;4372681;32;20254;-75
2021/06/12 07:30:02;;;;;;;4.33;3.10;;;;;;;23.28;60.37;96205.75;4373227;32;20227;-74
2021/06/12 07:32:27;;;;;;;5.30;3.30;;;;;;;23.43;60.00;96206.78;4375420;32;20254;-74
2021/06/12 07:34:53;;;;;;;6.57;3.20;;;;;;;23.33;62.04;96210.56;4376002;32;20231;-74
2021/06/12 07:37:18;;;;;;;5.77;2.70;;;;;;;23.30;58.66;96209.06;4374180;32;20257;-74
2021/06/12 07:39:44;;;;;;;3.87;2.43;;;;;;;23.33;59.51;96210.56;4374383;32;20607;-74
2021/06/12 07:42:09;;;;;;;4.17;2.60;;;;;;;23.37;59.27;96202.16;4373697;32;20237;-74
2021/06/12 07:44:34;;;;;;;6.67;2.90;;;;;;;23.56;55.91;96205.44;4373231;32;20615;-74
2021/06/12 07:47:02;;;;;;;4.40;2.85;;;;;;;23.85;58.89;96203.13;4372262;32;20249;-75
2021/06/12 07:49:27;;;;;;;6.07;2.70;;;;;;;23.89;54.07;96204.44;4372547;32;20231;-74
2021/06/12 07:51:52;;;;;;;4.07;2.50;;;;;;;23.39;53.62;96210.72;4373071;32;20567;-74
2021/06/12 07:54:19;;;;;;;5.93;2.67;;;;;;;23.50;54.25;96208.75;4372513;32;20253;-74
2021/06/12 07:56:44;;;;;;;4.70;2.67;;;;;;;23.42;54.88;96215.69;4372010;32;20257;-74
2021/06/12 07:59:10;;;;;;;7.80;2.77;;;;;;;23.60;54.20;96206.75;4373244;32;20219;-74
2021/06/12 08:01:35;;;;;;;3.33;2.60;;;;;;;23.59;54.81;96215.69;4372573;32;20265;-74
2021/06/12 08:04:02;;;;;;;3.00;2.23;;;;;;;23.71;53.36;96209.09;4372750;32;20357;-74
2021/06/12 08:06:28;;;;;;;7.12;2.40;;;;;;;24.01;51.82;96209.38;4372165;32;20276;-74
2021/06/12 08:08:54;;;;;;;2.87;2.40;;;;;;;24.13;51.60;96213.31;4372496;32;20246;-74
2021/06/12 08:11:19;;;;;;;4.23;2.40;;;;;;;24.14;51.42;96207.88;4372854;32;20592;-74
2021/06/12 08:13:44;;;;;;;4.12;2.70;;;;;;;24.21;52.96;96207.16;4372870;32;20306;-74
2021/06/12 08:16:10;;;;;;;3.27;2.23;;;;;;;24.49;51.16;96211.06;4372009;32;20219;-76
2021/06/12 08:18:35;;;;;;;4.80;2.30;;;;;;;24.70;50.83;96207.00;4372628;32;20528;-75
2021/06/12 08:21:02;;;;;;;4.50;2.40;;;;;;;24.50;50.75;96204.75;4372466;32;20259;-75
2021/06/12 08:23:28;;;;;;;5.78;2.50;;;;;;;24.34;51.60;96216.22;4372974;32;20656;-75
2021/06/12 08:25:53;;;;;;;4.35;2.20;;;;;;;24.37;49.87;96196.53;4372103;32;20224;-75
2021/06/12 08:28:19;;;;;;;6.60;2.23;;;;;;;24.32;51.34;96215.56;4371984;32;20258;-76
2021/06/12 08:30:44;;;;;;;4.07;2.30;;;;;;;24.17;51.93;96214.63;4372312;32;20637;-75
2021/06/12 08:33:10;;;;;;;5.00;2.20;;;;;;;24.48;51.10;96205.97;4372242;32;20215;-75
2021/06/12 08:35:36;;;;;;;5.32;2.00;;;;;;;24.53;50.21;96211.56;4372139;32;20520;-75
2021/06/12 08:38:03;;;;;;;2.60;2.12;;;;;;;24.77;49.21;96211.44;4358660;32;20266;-74
2021/06/12 08:40:30;;;;;;;5.00;2.40;;;;;;;24.60;52.63;96207.22;4358913;32;20287;-75
2021/06/12 08:42:56;;;;;;;4.03;2.20;;;;;;;24.18;50.19;96203.06;4372492;32;20250;-76
2021/06/12 08:45:25;;;;;;;3.37;2.17;;;;;;;24.54;49.92;96210.53;4358226;32;20958;-75
2021/06/12 08:47:51;;;;;;;4.30;1.92;;;;;;;24.64;49.41;96208.53;4372244;32;20219;-75
2021/06/12 08:50:19;;;;;;;2.67;2.15;;;;;;;24.41;51.37;96211.09;4372516;32;20305;-76
2021/06/12 08:52:44;;;;;;;2.97;1.95;;;;;;;24.41;50.82;96205.00;4372446;32;20247;-75
2021/06/12 08:55:11;;;;;;;5.57;1.97;;;;;;;24.68;49.67;96211.66;4372641;32;20223;-72
2021/06/12 08:57:37;;;;;;;4.07;2.08;;;;;;;24.84;47.77;96203.59;4372902;32;20651;-75
2021/06/12 09:00:05;;;;;;;5.30;1.93;;;;;;;24.55;51.00;96207.75;4372927;32;20215;-75
2021/06/12 09:03:05;;;;;;;9.23;2.20;;;;;;;24.44;51.29;96212.59;4372790;32;20230;-76
2021/06/12 09:05:37;;;;;;;2.30;1.83;;;;;;;24.24;51.46;96210.28;4372455;32;20227;-75
2021/06/12 09:08:06;;;;;;;4.35;1.95;;;;;;;24.37;51.69;96207.13;4361361;32;20528;-75
2021/06/12 09:10:33;;;;;;;4.75;1.48;;;;;;;24.13;53.53;96213.31;4361299;32;20642;-75
2021/06/12 09:13:00;;;;;;;4.93;1.55;;;;;;;23.68;53.12;96217.34;4375392;32;20227;-76
2021/06/12 09:15:26;;;;;;;3.05;1.80;;;;;;;23.68;54.27;96227.94;4374633;32;20546;-75
2021/06/12 09:17:51;;;;;;;3.57;1.93;;;;;;;23.73;54.93;96222.13;4374701;32;20314;-75
2021/06/12 09:20:18;;;;;;;4.70;2.10;;;;;;;23.57;54.44;96226.41;4374855;32;20235;-74
2021/06/12 09:22:44;;;;;;;2.20;1.67;;;;;;;23.72;53.07;96223.97;4374752;32;20223;-75
2021/06/12 09:25:10;;;;;;;3.87;1.50;;;;;;;23.90;53.97;96221.13;4374537;32;20231;-75
2021/06/12 09:27:37;;;;;;;4.15;1.98;;;;;;;23.86;54.08;96223.28;4374810;32;20678;-75
2021/06/12 09:30:06;;;;;;;3.95;1.98;;;;;;;23.93;53.75;96226.09;4375130;32;20551;-75
2021/06/12 09:32:32;;;;;;;2.53;1.80;;;;;;;23.79;55.17;96224.94;4375509;32;20231;-75
2021/06/12 09:35:04;;;;;;;3.70;2.15;;;;;;;23.60;55.02;96227.91;4375342;32;20269;-74
2021/06/12 09:37:31;;;;;;;6.30;2.30;;;;;;;23.47;56.39;96228.41;4375977;32;20226;-75
2021/06/12 09:39:58;;;;;;;3.47;2.17;;;;;;;23.74;55.98;96219.34;4375246;32;20250;-76
2021/06/12 09:42:41;;;;;;;3.12;2.25;;;;;;;23.91;55.53;96225.41;4375182;32;20219;-75
2021/06/12 09:45:09;;;;;;;4.32;2.20;;;;;;;24.18;55.33;96224.22;4361860;32;20317;-75
2021/06/12 09:47:34;;;;;;;2.67;2.30;;;;;;;23.88;54.38;96223.97;4375390;32;20227;-75
2021/06/12 09:50:02;;;;;;;5.87;2.97;;;;;;;23.51;55.52;96234.19;4375450;32;20594;-74
2021/06/12 09:52:40;;;;;;;2.70;2.00;;;;;;;23.75;54.70;96231.56;4362270;32;20281;-74
2021/06/12 09:55:06;;;;;;;6.18;2.65;;;;;;;23.72;54.82;96226.59;4374938;32;20220;-74
2021/06/12 09:57:44;;;;;;;2.58;2.20;;;;;;;24.18;53.79;96218.09;4374938;32;20219;-74
2021/06/12 10:00:12;;;;;;;4.55;2.30;;;;;;;24.31;52.26;96221.84;4374310;32;20240;-73
2021/06/12 10:02:40;;;;;;;2.40;2.10;;;;;;;24.45;51.67;96223.00;4374347;32;20277;-74
2021/06/12 10:05:07;;;;;;;3.22;2.10;;;;;;;24.55;50.79;96223.62;4374966;32;20219;-76
2021/06/12 10:07:33;;;;;;;3.20;2.33;;;;;;;24.47;51.43;96221.00;4375121;32;20277;-76
2021/06/12 10:10:01;;;;;;;2.40;2.07;;;;;;;24.38;51.56;96216.72;4375214;32;20227;-75
2021/06/12 10:12:27;;;;;;;6.75;2.58;;;;;;;23.96;52.12;96212.53;4374816;32;20215;-74
2021/06/12 10:14:56;;;;;;;2.65;2.10;;;;;;;23.95;53.50;96216.16;4374234;32;20551;-74
2021/06/12 10:17:23;;;;;;;2.83;2.17;;;;;;;24.33;52.97;96219.06;4373074;32;20265;-74
2021/06/12 10:19:51;;;;;;;4.25;2.30;;;;;;;24.69;51.11;96215.94;4374337;32;20658;-75
2021/06/12 10:22:16;;;;;;;3.53;2.30;;;;;;;25.02;49.70;96213.94;4373708;32;20254;-75
2021/06/12 10:24:42;;;;;;;4.67;2.10;;;;;;;25.03;49.57;96213.78;4374334;32;20263;-74
2021/06/12 10:27:08;;;;;;;6.97;2.40;;;;;;;25.62;47.93;96215.84;4373432;32;20278;-75
2021/06/12 10:29:34;;;;;;;4.22;2.10;;;;;;;25.44;50.97;96223.28;4374269;32;20250;-75
2021/06/12 10:32:02;;;;;;;3.45;2.42;;;;;;;25.48;48.98;96206.03;4373809;32;20294;-74
2021/06/12 10:34:30;;;;;;;3.20;2.17;;;;;;;25.27;51.63;96211.97;4375070;32;20232;-74
2021/06/12 10:37:00;;;;;;;8.00;2.60;;;;;;;25.56;46.79;96213.91;4375940;32;20642;-74
2021/06/12 10:39:27;;;;;;;6.18;2.20;;;;;;;25.32;49.50;96207.78;4376405;32;20624;-75
2021/06/12 10:42:09;;;;;;;4.07;2.07;;;;;;;25.00;46.97;96219.41;4375847;32;20751;-75
2021/06/12 10:44:35;;;;;;;5.10;2.33;;;;;;;24.92;47.74;96211.53;4374433;32;20285;-75
2021/06/12 10:47:00;;;;;;;4.83;2.30;;;;;;;24.97;48.31;96211.81;4373122;32;20219;-75
2021/06/12 10:49:33;;;;;;;4.50;2.10;;;;;;;25.04;48.41;96206.66;4374035;32;20219;-75
2021/06/12 10:51:59;;;;;;;2.00;1.80;;;;;;;24.84;46.94;96193.84;4359992;32;20269;-75
2021/06/12 10:54:29;;;;;;;4.10;1.80;;;;;;;24.86;48.99;96210.38;4373253;32;20223;-75
2021/06/12 10:56:57;;;;;;;4.75;1.80;;;;;;;25.21;48.30;96208.19;4372924;32;20245;-75
2021/06/12 10:59:41;;;;;;;3.58;1.92;;;;;;;25.43;45.97;96203.88;4373339;32;20667;-75
2021/06/12 11:02:12;;;;;;;3.08;2.15;;;;;;;25.86;45.47;96198.91;4373405;32;20697;-75
2021/06/12 11:04:47;;;;;;;2.85;2.00;;;;;;;25.51;46.59;96198.53;4373484;32;20539;-75
2021/06/12 11:07:27;;;;;;;3.22;1.35;;;;;;;25.26;44.26;96203.22;4372718;32;20278;-75
2021/06/12 11:10:18;;;;;;;2.55;1.45;;;;;;;25.08;42.00;96198.16;4373298;32;20266;-75
2021/06/12 11:12:44;;;;;;;2.77;1.20;;;;;;;25.26;40.11;96197.91;4373349;32;20227;-75
2021/06/12 11:15:13;;;;;;;3.25;1.40;;;;;;;25.73;40.17;96201.31;4373328;32;20239;-75
2021/06/12 11:17:40;;;;;;;1.25;1.00;;;;;;;25.64;39.14;96197.91;4373055;32;20658;-75
2021/06/12 11:20:28;;;;;;;1.50;1.10;;;;;;;25.62;38.03;96202.56;4359574;32;20586;-75
2021/06/12 11:22:57;;;;;;;2.17;1.27;;;;;;;25.96;38.72;96194.16;4373445;32;20600;-75
2021/06/12 11:25:56;;;;;;;2.72;1.70;;;;;;;25.72;38.91;96199.69;4372926;32;20266;-74
2021/06/12 11:28:27;;;;;;;1.77;1.17;;;;;;;25.90;39.92;96202.84;4358832;32;20234;-75
2021/06/12 11:30:54;;;;;;;1.92;1.10;;;;;;;26.10;38.39;96204.97;4373259;32;20262;-75
2021/06/12 11:33:20;;;;;;;3.75;1.45;;;;;;;26.01;36.63;96199.75;4359470;32;20249;-76